createdAt,value
2019-02-28T00:01:28.450Z,13.97
2019-02-28T00:03:58.022Z,13.93
2019-02-28T00:06:26.326Z,13.91
2019-02-28T00:08:54.477Z,13.87
2019-02-28T00:11:22.799Z,13.86
2019-02-28T00:13:52.335Z,13.87
2019-02-28T00:16:20.644Z,13.87
2019-02-28T00:18:49.822Z,13.82
2019-02-28T00:21:18.859Z,13.79
2019-02-28T00:23:46.995Z,13.75
2019-02-28T00:26:15.342Z,13.75
2019-02-28T00:28:43.446Z,13.72
2019-02-28T00:31:14.201Z,13.68
2019-02-28T00:33:41.176Z,13.68
2019-02-28T00:36:09.541Z,13.67
2019-02-28T00:38:37.804Z,13.68
2019-02-28T00:41:09.300Z,13.68
2019-02-28T00:43:36.080Z,13.66
2019-02-28T00:46:07.285Z,13.63
2019-02-28T00:48:34.426Z,13.62
2019-02-28T00:51:02.589Z,13.63
2019-02-28T00:53:30.598Z,13.64
2019-02-28T00:55:58.574Z,13.59
2019-02-28T00:58:28.845Z,13.56
2019-02-28T01:00:56.374Z,13.57
2019-02-28T01:03:27.252Z,13.56
2019-02-28T01:05:54.426Z,13.55
2019-02-28T01:08:22.820Z,13.54
2019-02-28T01:10:50.984Z,13.51
2019-02-28T01:13:19.073Z,13.48
2019-02-28T01:15:47.050Z,13.49
2019-02-28T01:18:15.160Z,13.47
2019-02-28T01:20:43.258Z,13.46
2019-02-28T01:23:11.620Z,13.46
2019-02-28T01:25:40.169Z,13.45
2019-02-28T01:28:09.163Z,13.45
2019-02-28T01:30:40.618Z,13.43
2019-02-28T01:33:07.134Z,13.41
2019-02-28T01:35:40.465Z,13.40
2019-02-28T01:38:05.129Z,13.39
2019-02-28T01:40:35.175Z,13.39
2019-02-28T01:43:02.979Z,13.38
2019-02-28T01:45:31.269Z,13.36
2019-02-28T01:47:59.377Z,13.35
2019-02-28T01:50:29.684Z,13.33
2019-02-28T01:52:57.390Z,13.32
2019-02-28T01:55:25.389Z,13.33
2019-02-28T01:57:53.598Z,13.30
2019-02-28T02:00:23.829Z,13.30
2019-02-28T02:02:51.435Z,13.28
2019-02-28T02:05:19.434Z,13.28
2019-02-28T02:07:47.542Z,13.27
2019-02-28T02:10:21.344Z,13.25
2019-02-28T02:12:49.122Z,13.24
2019-02-28T02:15:17.902Z,13.22
2019-02-28T02:17:46.010Z,13.21
2019-02-28T02:20:14.026Z,13.20
2019-02-28T02:22:44.546Z,13.18
2019-02-28T02:25:11.929Z,13.18
2019-02-28T02:27:40.146Z,13.17
2019-02-28T02:30:15.206Z,13.17
2019-02-28T02:32:40.241Z,13.15
2019-02-28T02:35:08.596Z,13.13
2019-02-28T02:37:37.201Z,13.11
2019-02-28T02:40:05.595Z,13.10
2019-02-28T02:42:33.949Z,13.10
2019-02-28T02:45:05.177Z,13.08
2019-02-28T02:47:32.631Z,13.06
2019-02-28T02:50:00.893Z,13.05
2019-02-28T02:52:30.547Z,13.06
2019-02-28T02:54:58.902Z,13.04
2019-02-28T02:57:27.224Z,13.03
2019-02-28T02:59:55.250Z,13.03
2019-02-28T03:02:23.306Z,13.02
2019-02-28T03:04:57.771Z,13.00
2019-02-28T03:07:24.509Z,12.98
2019-02-28T03:09:50.934Z,12.96
2019-02-28T03:12:19.071Z,12.96
2019-02-28T03:14:48.812Z,12.94
2019-02-28T03:17:16.894Z,12.94
2019-02-28T03:19:45.188Z,12.92
2019-02-28T03:22:13.322Z,12.91
2019-02-28T03:24:41.475Z,12.89
2019-02-28T03:27:10.024Z,12.89
2019-02-28T03:29:43.512Z,12.88
2019-02-28T03:32:08.175Z,12.87
2019-02-28T03:34:36.414Z,12.85
2019-02-28T03:37:04.402Z,12.84
2019-02-28T03:39:32.438Z,12.82
2019-02-28T03:42:00.478Z,12.79
2019-02-28T03:44:28.484Z,12.80
2019-02-28T03:46:56.462Z,12.77
2019-02-28T03:49:24.600Z,12.76
2019-02-28T03:51:52.787Z,12.76
2019-02-28T03:54:20.970Z,12.75
2019-02-28T03:56:52.915Z,12.75
2019-02-28T03:59:20.175Z,12.73
2019-02-28T04:01:48.343Z,12.71
2019-02-28T04:04:16.378Z,12.71
2019-02-28T04:06:44.354Z,12.70
2019-02-28T04:09:12.382Z,12.69
2019-02-28T04:11:40.632Z,12.68
2019-02-28T04:14:08.631Z,12.65
2019-02-28T04:16:36.603Z,12.65
2019-02-28T04:19:04.660Z,12.63
2019-02-28T04:21:32.647Z,12.62
2019-02-28T04:24:00.663Z,12.61
2019-02-28T04:26:29.848Z,12.61
2019-02-28T04:28:58.570Z,12.57
2019-02-28T04:31:26.767Z,12.57
2019-02-28T04:33:54.846Z,12.57
2019-02-28T04:36:23.183Z,12.55
2019-02-28T04:38:51.898Z,12.56
2019-02-28T04:41:20.689Z,12.54
2019-02-28T04:43:48.855Z,12.54
2019-02-28T04:46:16.826Z,12.53
2019-02-28T04:48:45.666Z,12.52
2019-02-28T04:51:14.595Z,12.50
2019-02-28T04:53:42.802Z,12.46
2019-02-28T04:56:11.593Z,12.49
2019-02-28T04:58:40.439Z,12.49
2019-02-28T05:01:09.145Z,12.44
2019-02-28T05:03:38.606Z,12.45
2019-02-28T05:06:06.869Z,12.44
2019-02-28T05:08:38.638Z,12.41
2019-02-28T05:11:04.985Z,12.40
2019-02-28T05:13:32.954Z,12.39
2019-02-28T05:16:00.970Z,12.37
2019-02-28T05:18:29.014Z,12.37
2019-02-28T05:20:57.027Z,12.34
2019-02-28T05:23:25.063Z,12.35
2019-02-28T05:25:53.060Z,12.35
2019-02-28T05:28:21.370Z,12.36
2019-02-28T05:30:50.173Z,12.36
2019-02-28T05:33:19.140Z,12.39
2019-02-28T05:35:47.594Z,12.37
2019-02-28T05:38:20.771Z,12.39
2019-02-28T05:40:45.582Z,12.37
2019-02-28T05:43:13.570Z,12.38
2019-02-28T05:45:41.861Z,12.39
2019-02-28T05:48:10.095Z,12.40
2019-02-28T05:50:38.180Z,12.42
2019-02-28T05:53:09.024Z,12.43
2019-02-28T05:55:36.018Z,12.43
2019-02-28T05:58:04.179Z,12.42
2019-02-28T06:00:33.410Z,12.43
2019-02-28T06:03:02.676Z,12.42
2019-02-28T06:05:30.725Z,12.44
2019-02-28T06:08:00.459Z,12.44
2019-02-28T06:10:28.557Z,12.46
2019-02-28T06:12:56.806Z,12.47
2019-02-28T06:15:25.281Z,12.46
2019-02-28T06:17:55.019Z,12.46
2019-02-28T06:20:23.016Z,12.45
2019-02-28T06:22:51.295Z,12.44
2019-02-28T06:25:24.117Z,12.42
2019-02-28T06:27:50.649Z,12.44
2019-02-28T06:30:19.046Z,12.44
2019-02-28T06:32:47.269Z,12.46
2019-02-28T06:35:17.264Z,12.47
2019-02-28T06:37:45.075Z,12.47
2019-02-28T06:40:13.482Z,12.46
2019-02-28T06:42:43.558Z,12.47
2019-02-28T06:45:12.434Z,12.49
2019-02-28T06:47:40.522Z,12.49
2019-02-28T06:50:09.124Z,12.55
2019-02-28T06:52:37.348Z,12.56
2019-02-28T06:55:05.492Z,12.61
2019-02-28T06:57:33.855Z,12.60
2019-02-28T07:00:04.706Z,12.59
2019-02-28T07:02:35.227Z,12.60
2019-02-28T07:05:03.634Z,12.60
2019-02-28T07:07:31.942Z,12.64
2019-02-28T07:10:00.362Z,12.67
2019-02-28T07:12:29.797Z,12.70
2019-02-28T07:14:59.627Z,12.70
2019-02-28T07:17:27.897Z,12.69
2019-02-28T07:20:01.374Z,12.73
2019-02-28T07:22:26.003Z,12.74
2019-02-28T07:24:55.906Z,12.74
2019-02-28T07:27:26.656Z,12.78
2019-02-28T07:29:53.980Z,12.79
2019-02-28T07:32:22.037Z,12.80
2019-02-28T07:34:54.857Z,12.81
2019-02-28T07:37:21.666Z,12.84
2019-02-28T07:39:52.206Z,12.86
2019-02-28T07:42:22.210Z,12.88
2019-02-28T07:44:53.623Z,12.89
2019-02-28T07:47:20.603Z,12.92
2019-02-28T07:49:50.242Z,12.95
2019-02-28T07:52:20.363Z,12.99
2019-02-28T07:54:51.846Z,13.04
2019-02-28T07:57:18.748Z,13.08
2019-02-28T07:59:46.806Z,13.11
2019-02-28T08:02:14.854Z,13.14
2019-02-28T08:04:43.726Z,13.16
2019-02-28T08:07:14.742Z,13.18
2019-02-28T08:09:41.838Z,13.20
2019-02-28T08:12:12.096Z,13.22
2019-02-28T08:14:39.932Z,13.28
2019-02-28T08:17:08.923Z,13.30
2019-02-28T08:19:37.961Z,13.43
2019-02-28T08:22:06.179Z,13.46
2019-02-28T08:24:35.806Z,13.51
2019-02-28T08:27:04.297Z,13.56
2019-02-28T08:29:32.275Z,13.62
2019-02-28T08:32:06.736Z,13.67
2019-02-28T08:34:31.388Z,13.70
2019-02-28T08:36:59.518Z,13.72
2019-02-28T08:39:27.826Z,13.74
2019-02-28T08:42:02.783Z,13.73
2019-02-28T08:44:25.820Z,13.74
2019-02-28T08:46:54.023Z,13.72
2019-02-28T08:49:22.076Z,13.68
2019-02-28T08:51:50.049Z,13.66
2019-02-28T08:54:18.126Z,13.66
2019-02-28T08:56:49.426Z,13.66
2019-02-28T08:59:19.629Z,13.72
2019-02-28T09:01:47.195Z,13.88
2019-02-28T09:04:16.288Z,13.98
2019-02-28T09:06:44.374Z,14.09
2019-02-28T09:09:14.603Z,14.17
2019-02-28T09:11:42.422Z,14.24
2019-02-28T09:14:14.701Z,14.30
2019-02-28T09:16:42.151Z,14.37
2019-02-28T09:19:10.237Z,14.44
2019-02-28T09:21:38.887Z,14.49
2019-02-28T09:24:12.735Z,14.57
2019-02-28T09:26:39.695Z,14.66
2019-02-28T09:29:10.478Z,14.71
2019-02-28T09:31:39.833Z,14.78
2019-02-28T09:34:14.408Z,14.84
2019-02-28T09:36:42.877Z,14.91
2019-02-28T09:39:11.340Z,14.95
2019-02-28T09:41:41.045Z,15.01
2019-02-28T09:44:10.469Z,15.06
2019-02-28T09:46:39.087Z,15.13
2019-02-28T09:49:12.012Z,15.17
2019-02-28T09:51:38.835Z,15.22
2019-02-28T09:54:07.444Z,15.30
2019-02-28T09:56:36.547Z,15.37
2019-02-28T09:59:05.649Z,15.42
2019-02-28T10:01:34.073Z,15.44
2019-02-28T10:04:02.435Z,15.46
2019-02-28T10:06:30.814Z,15.48
2019-02-28T10:08:59.682Z,15.47
2019-02-28T10:11:31.420Z,15.46
2019-02-28T10:13:58.456Z,15.44
2019-02-28T10:16:26.829Z,15.45
2019-02-28T10:18:55.313Z,15.42
2019-02-28T10:21:25.301Z,15.42
2019-02-28T10:23:57.004Z,15.41
2019-02-28T10:26:23.375Z,15.40
2019-02-28T10:28:52.500Z,15.35
2019-02-28T10:31:22.857Z,15.33
2019-02-28T10:33:52.490Z,15.32
2019-02-28T10:36:20.762Z,15.32
2019-02-28T10:38:49.337Z,15.37
2019-02-28T10:41:17.459Z,15.34
2019-02-28T10:43:49.949Z,15.34
2019-02-28T10:46:16.590Z,15.44
2019-02-28T10:48:50.881Z,15.48
2019-02-28T10:51:15.311Z,15.53
2019-02-28T10:53:43.354Z,15.61
2019-02-28T10:56:11.338Z,15.62
2019-02-28T10:58:39.844Z,15.64
2019-02-28T11:01:09.027Z,15.76
2019-02-28T11:03:37.059Z,15.94
2019-02-28T11:06:05.174Z,16.03
2019-02-28T11:08:33.442Z,16.08
2019-02-28T11:11:01.438Z,16.05
2019-02-28T11:13:31.994Z,16.03
2019-02-28T11:15:59.575Z,15.94
2019-02-28T11:18:27.658Z,15.81
2019-02-28T11:20:58.051Z,15.73
2019-02-28T11:23:25.625Z,15.63
2019-02-28T11:25:54.004Z,15.57
2019-02-28T11:28:27.784Z,15.49
2019-02-28T11:30:52.829Z,15.45
2019-02-28T11:33:22.839Z,15.41
2019-02-28T11:35:50.783Z,15.35
2019-02-28T11:38:21.449Z,15.34
2019-02-28T11:40:57.099Z,15.31
2019-02-28T11:43:18.767Z,15.30
2019-02-28T11:45:46.803Z,15.28
2019-02-28T11:48:19.073Z,15.26
2019-02-28T11:52:32.042Z,15.26
2019-02-28T11:55:00.902Z,15.21
2019-02-28T11:57:30.168Z,15.20
2019-02-28T12:00:00.539Z,15.19
2019-02-28T12:02:31.690Z,15.15
2019-02-28T12:05:00.874Z,15.13
2019-02-28T12:07:34.601Z,15.13
2019-02-28T12:10:02.053Z,15.13
2019-02-28T12:12:31.040Z,15.12
2019-02-28T12:15:02.668Z,15.10
2019-02-28T12:17:30.919Z,15.10
2019-02-28T12:19:59.997Z,15.10
2019-02-28T12:22:28.998Z,15.10
2019-02-28T12:24:57.975Z,15.09
2019-02-28T12:27:27.637Z,15.08
2019-02-28T12:29:57.176Z,15.08
2019-02-28T12:32:26.162Z,15.09
2019-02-28T12:34:55.147Z,15.10
2019-02-28T12:37:23.990Z,15.10
2019-02-28T12:39:53.099Z,15.10
2019-02-28T12:42:22.141Z,15.10
2019-02-28T12:44:53.875Z,15.12
2019-02-28T12:47:23.582Z,15.15
2019-02-28T12:49:54.304Z,15.15
2019-02-28T12:52:23.233Z,15.15
2019-02-28T12:54:52.228Z,15.15
2019-02-28T12:57:22.369Z,15.16
2019-02-28T12:59:52.281Z,15.15
2019-02-28T13:02:21.232Z,15.18
2019-02-28T13:04:50.112Z,15.19
2019-02-28T13:07:18.987Z,15.20
2019-02-28T13:09:51.141Z,15.19
2019-02-28T13:12:18.720Z,15.23
2019-02-28T13:14:47.812Z,15.24
2019-02-28T13:17:16.683Z,15.23
2019-02-28T13:19:45.671Z,15.26
2019-02-28T13:22:14.583Z,15.25
2019-02-28T13:24:46.574Z,15.23
2019-02-28T13:27:14.352Z,15.29
2019-02-28T13:29:43.356Z,15.31
2019-02-28T13:32:12.457Z,15.35
2019-02-28T13:34:41.393Z,15.43
2019-02-28T13:37:10.506Z,15.47
2019-02-28T13:39:39.528Z,15.49
2019-02-28T13:42:08.508Z,15.51
2019-02-28T13:44:37.596Z,15.49
2019-02-28T13:47:09.796Z,15.48
2019-02-28T13:49:38.547Z,15.48
2019-02-28T13:52:07.527Z,15.50
2019-02-28T13:54:38.097Z,15.50
2019-02-28T13:57:09.667Z,15.59
2019-02-28T13:59:38.593Z,15.66
2019-02-28T14:02:07.531Z,15.72
2019-02-28T14:04:36.540Z,15.76
2019-02-28T14:07:07.391Z,15.79
2019-02-28T14:12:04.681Z,15.86
2019-02-28T14:14:33.794Z,15.90
2019-02-28T14:17:02.643Z,15.91
2019-02-28T14:19:31.550Z,15.91
2019-02-28T14:22:00.619Z,15.93
2019-02-28T14:24:30.869Z,15.94
2019-02-28T14:27:00.706Z,15.94
2019-02-28T14:29:29.624Z,16.02
2019-02-28T14:31:58.716Z,16.14
2019-02-28T14:34:27.706Z,16.34
2019-02-28T14:36:56.710Z,16.47
2019-02-28T14:39:25.771Z,16.59
2019-02-28T14:41:54.738Z,16.66
2019-02-28T14:44:23.662Z,16.67
2019-02-28T14:46:54.056Z,16.65
2019-02-28T14:49:22.310Z,16.59
2019-02-28T14:51:51.288Z,16.53
2019-02-28T14:56:49.827Z,16.43
2019-02-28T14:59:18.790Z,16.36
2019-02-28T15:01:49.548Z,16.32
2019-02-28T15:04:18.527Z,16.30
2019-02-28T15:06:47.859Z,16.26
2019-02-28T15:09:18.129Z,16.24
2019-02-28T15:11:48.208Z,16.27
2019-02-28T15:14:17.418Z,16.28
2019-02-28T15:16:47.327Z,16.29
2019-02-28T15:19:16.359Z,16.30
2019-02-28T15:21:45.328Z,16.29
2019-02-28T15:24:14.380Z,16.28
2019-02-28T15:26:43.368Z,16.28
2019-02-28T15:29:12.393Z,16.28
2019-02-28T15:31:43.454Z,16.29
2019-02-28T15:34:12.953Z,16.30
2019-02-28T15:36:42.039Z,16.28
2019-02-28T15:39:11.016Z,16.30
2019-02-28T15:41:40.360Z,16.29
2019-02-28T15:44:10.301Z,16.26
2019-02-28T15:46:39.561Z,16.23
2019-02-28T15:49:10.136Z,16.19
2019-02-28T15:51:39.122Z,16.16
2019-02-28T15:54:08.182Z,16.13
2019-02-28T15:56:37.169Z,16.12
2019-02-28T15:59:06.203Z,16.08
2019-02-28T16:01:35.257Z,16.06
2019-02-28T16:04:04.178Z,16.04
2019-02-28T16:06:33.205Z,16.02
2019-02-28T16:09:02.168Z,16.00
2019-02-28T16:11:31.232Z,15.98
2019-02-28T16:14:00.466Z,15.95
2019-02-28T16:16:30.098Z,15.93
2019-02-28T16:18:59.068Z,15.91
2019-02-28T16:21:28.288Z,15.90
2019-02-28T16:23:57.249Z,15.87
2019-02-28T16:26:26.203Z,15.87
2019-02-28T16:28:55.306Z,15.84
2019-02-28T16:31:24.149Z,15.81
2019-02-28T16:33:56.573Z,15.80
2019-02-28T16:36:25.567Z,15.76
2019-02-28T16:38:56.459Z,15.75
2019-02-28T16:41:25.358Z,15.72
2019-02-28T16:43:55.379Z,15.71
2019-02-28T16:46:25.333Z,15.69
2019-02-28T16:48:54.372Z,15.66
2019-02-28T16:51:23.347Z,15.64
2019-02-28T16:53:53.201Z,15.61
2019-02-28T16:56:22.270Z,15.59
2019-02-28T16:58:53.823Z,15.56
2019-02-28T17:01:21.863Z,15.55
2019-02-28T17:03:50.833Z,15.53
2019-02-28T17:06:19.945Z,15.51
2019-02-28T17:09:00.674Z,15.49
2019-02-28T17:11:29.546Z,15.48
2019-02-28T17:14:10.212Z,15.48
2019-02-28T17:16:43.832Z,15.45
2019-02-28T17:19:13.042Z,15.43
2019-02-28T17:21:42.437Z,15.41
2019-02-28T17:24:12.284Z,15.40
2019-02-28T17:26:58.550Z,15.39
2019-02-28T17:30:01.864Z,15.37
2019-02-28T17:32:32.324Z,15.36
2019-02-28T17:35:01.240Z,15.34
2019-02-28T17:37:30.520Z,15.32
2019-02-28T17:39:59.569Z,15.32
2019-02-28T17:42:28.645Z,15.28
2019-02-28T17:45:24.727Z,15.28
2019-02-28T17:48:28.007Z,15.26
2019-02-28T17:51:32.942Z,15.26
2019-02-28T17:54:36.326Z,15.24
2019-02-28T17:57:48.678Z,15.22
2019-02-28T18:00:33.067Z,15.19
2019-02-28T18:03:45.037Z,15.16
2019-02-28T18:06:53.029Z,15.16
2019-02-28T18:09:45.002Z,15.13
2019-02-28T18:12:51.964Z,15.12
2019-02-28T18:15:25.529Z,15.11
2019-02-28T18:18:23.112Z,15.08
2019-02-28T18:21:48.145Z,15.08
2019-02-28T18:24:52.760Z,15.07
2019-02-28T18:27:59.863Z,15.05
2019-02-28T18:31:09.625Z,15.04
2019-02-28T18:33:41.876Z,15.03
2019-02-28T18:36:14.058Z,15.00
2019-02-28T18:38:43.072Z,15.00
2019-02-28T18:41:12.513Z,15.00
2019-02-28T18:43:41.400Z,14.99
2019-02-28T18:46:10.632Z,14.97
2019-02-28T18:48:39.872Z,14.97
2019-02-28T18:51:08.953Z,14.96
2019-02-28T18:53:38.040Z,14.97
2019-02-28T18:56:07.059Z,14.95
2019-02-28T18:58:36.318Z,14.94
2019-02-28T19:01:05.490Z,14.94
2019-02-28T19:03:34.889Z,14.92
2019-02-28T19:06:03.952Z,14.91
2019-02-28T19:08:33.018Z,14.89
2019-02-28T19:11:01.994Z,14.88
2019-02-28T19:13:31.044Z,14.88
2019-02-28T19:16:00.721Z,14.87
2019-02-28T19:18:29.716Z,14.85
2019-02-28T19:20:58.692Z,14.85
2019-02-28T19:23:27.827Z,14.83
2019-02-28T19:25:56.947Z,14.83
2019-02-28T19:28:26.225Z,14.82
2019-02-28T19:30:57.649Z,14.81
2019-02-28T19:33:29.815Z,14.80
2019-02-28T19:35:59.165Z,14.78
2019-02-28T19:38:28.278Z,14.79
2019-02-28T19:40:57.251Z,14.78
2019-02-28T19:43:26.180Z,14.77
2019-02-28T19:45:55.567Z,14.76
2019-02-28T19:48:24.539Z,14.75
2019-02-28T19:50:53.641Z,14.74
2019-02-28T19:53:30.221Z,14.74
2019-02-28T19:55:59.229Z,14.73
2019-02-28T19:58:28.224Z,14.70
2019-02-28T20:00:57.272Z,14.70
2019-02-28T20:03:26.237Z,14.69
2019-02-28T20:05:55.301Z,14.68
2019-02-28T20:08:24.306Z,14.68
2019-02-28T20:10:53.374Z,14.67
2019-02-28T20:13:22.257Z,14.66
2019-02-28T20:15:51.309Z,14.65
2019-02-28T20:18:20.358Z,14.65
2019-02-28T20:20:49.411Z,14.63
2019-02-28T20:23:22.448Z,14.64
2019-02-28T20:25:52.595Z,14.61
2019-02-28T20:28:23.116Z,14.61
2019-02-28T20:30:52.374Z,14.61
2019-02-28T20:33:43.550Z,14.59
2019-02-28T20:36:12.661Z,14.58
2019-02-28T20:38:41.501Z,14.56
2019-02-28T20:41:10.692Z,14.56
2019-02-28T20:43:39.697Z,14.55
2019-02-28T20:46:09.493Z,14.55
2019-02-28T20:48:46.149Z,14.53
2019-02-28T20:51:15.001Z,14.53
2019-02-28T20:53:47.744Z,14.52
2019-02-28T20:56:17.185Z,14.51
2019-02-28T20:58:51.006Z,14.51
2019-02-28T21:01:20.597Z,14.50
2019-02-28T21:03:50.067Z,14.49
2019-02-28T21:06:19.092Z,14.48
2019-02-28T21:08:48.159Z,14.47
2019-02-28T21:11:17.302Z,14.47
2019-02-28T21:13:46.748Z,14.47
2019-02-28T21:16:15.741Z,14.46
2019-02-28T21:18:44.713Z,14.45
2019-02-28T21:21:13.615Z,14.44
2019-02-28T21:23:43.947Z,14.43
2019-02-28T21:26:12.174Z,14.42
2019-02-28T21:28:41.331Z,14.40
2019-02-28T21:31:10.641Z,14.40
2019-02-28T21:33:39.709Z,14.39
2019-02-28T21:36:08.753Z,14.39
2019-02-28T21:38:37.641Z,14.39
2019-02-28T21:41:06.520Z,14.38
2019-02-28T21:43:35.557Z,14.36
2019-02-28T21:46:04.474Z,14.36
2019-02-28T21:48:33.743Z,14.35
2019-02-28T21:51:02.897Z,14.34
2019-02-28T21:53:31.925Z,14.33
2019-02-28T21:56:00.842Z,14.33
2019-02-28T21:58:31.229Z,14.32
2019-02-28T22:01:00.320Z,14.33
2019-02-28T22:03:29.397Z,14.31
2019-02-28T22:05:58.328Z,14.30
2019-02-28T22:08:27.363Z,14.29
2019-02-28T22:10:56.312Z,14.28
2019-02-28T22:13:25.456Z,14.28
2019-02-28T22:15:54.329Z,14.27
2019-02-28T22:18:23.468Z,14.25
2019-02-28T22:20:52.319Z,14.26
2019-02-28T22:23:21.206Z,14.25
2019-02-28T22:25:49.982Z,14.23
2019-02-28T22:28:18.894Z,14.23
2019-02-28T22:31:07.024Z,14.23
2019-02-28T22:33:44.202Z,14.21
2019-02-28T22:36:15.561Z,14.19
2019-02-28T22:38:44.514Z,14.19
2019-02-28T22:41:13.986Z,14.18
2019-02-28T22:43:43.255Z,14.18
2019-02-28T22:46:12.146Z,14.16
2019-02-28T22:48:41.291Z,14.17
2019-02-28T22:51:10.165Z,14.16
2019-02-28T22:53:39.131Z,14.15
2019-02-28T22:56:08.105Z,14.13
2019-02-28T22:58:37.123Z,14.12
2019-02-28T23:01:10.602Z,14.13
2019-02-28T23:03:39.549Z,14.12
2019-02-28T23:06:08.499Z,14.10
2019-02-28T23:08:37.531Z,14.11
2019-02-28T23:11:06.548Z,14.08
2019-02-28T23:13:35.590Z,14.08
2019-02-28T23:16:04.540Z,14.07
2019-02-28T23:18:33.579Z,14.07
2019-02-28T23:21:02.709Z,14.06
2019-02-28T23:23:32.005Z,14.05
2019-02-28T23:26:09.039Z,14.05
2019-02-28T23:28:40.472Z,14.04
2019-02-28T23:32:11.485Z,14.02
2019-02-28T23:34:43.371Z,14.02
2019-02-28T23:37:12.270Z,13.99
2019-02-28T23:39:41.431Z,13.99
2019-02-28T23:42:10.291Z,13.99
2019-02-28T23:44:39.326Z,14.00
2019-02-28T23:47:08.349Z,13.98
2019-02-28T23:49:37.382Z,13.98
2019-02-28T23:52:06.325Z,13.98
2019-02-28T23:54:35.381Z,13.98
2019-02-28T23:57:04.359Z,13.96
2019-02-28T23:59:33.294Z,13.94
